»·PEaware :: N9693Q KLGB-KONT

N9693Q :: KLGB-KONT

FLIGHT INFORMATION

Flight Status: Arrived
Operator: Privately registered:
United States
More flights under this callsign
Pilot: Anonymous 19359 (19359)
Aircraft: CESSNA 172 SKYHAWK
(C172)
More flights by this aircraft type
Origin: KLGB Long Beach
United States
Destination: KONT Ontario Intl
United States
More flights between these airports :: More routes between these airports
Route:
File this flight plan on PilotEdge
Remarks:
Altitude:
(Current/Filed)
7,500ft
Speed:
(Current/Filed)
120kts
Departed: 18-May-19 01:16 PM
Arrived: 18-May-19 02:49 PM
Distance/Time
Traveled:
31nm/1:32
Distance/Time
To Go:
Arrived

Flight Plot

Page will automatically refresh every two minutes.


Map Options




Map Legend


Flown Route
Filed Route
Departure Airport
Arrival Airport
Navaid (VOR, NDB)
Fix

Horizontal Profiles

Position Reports

Time Latitude Longitude Heading Altitude Ground
Speed
18-May-19 13:05 33.813070 -118.161842 181 56ft 0kts
18-May-19 13:07 33.813070 -118.161842 181 56ft 0kts
18-May-19 13:08 33.813070 -118.161842 181 56ft 0kts
18-May-19 13:09 33.813070 -118.161842 181 56ft 0kts
18-May-19 13:10 33.813039 -118.161833 156 56ft 2kts
18-May-19 13:11 33.813003 -118.161181 91 55ft 12kts
18-May-19 13:12 33.813110 -118.154990 87 45ft 19kts
18-May-19 13:13 33.813166 -118.148435 71 36ft 8kts
18-May-19 13:14 33.813249 -118.148216 53 36ft 0kts
18-May-19 13:15 33.813454 -118.147985 28 37ft 9kts
18-May-19 13:16 33.813742 -118.159679 270 257ft 69kts
18-May-19 13:17 33.813430 -118.183406 266 906ft 76kts
18-May-19 13:18 33.815314 -118.208068 311 1589ft 79kts
18-May-19 13:19 33.838382 -118.211613 357 2218ft 88kts
18-May-19 13:20 33.855463 -118.192005 73 2767ft 98kts
18-May-19 13:21 33.860878 -118.159981 82 3273ft 100kts
18-May-19 13:22 33.864954 -118.127097 75 3731ft 102kts
18-May-19 13:23 33.868699 -118.094003 77 4134ft 102kts
18-May-19 13:24 33.874174 -118.061027 95 4393ft 100kts
18-May-19 13:24 33.874891 -118.032874 90 4677ft 101kts
18-May-19 13:25 33.875312 -117.998887 90 5121ft 103kts
18-May-19 13:27 33.877800 -117.958628 90 5358ft 103kts
18-May-19 13:27 33.878673 -117.929770 86 5436ft 104kts
18-May-19 13:28 33.882129 -117.895291 89 5771ft 105kts
18-May-19 13:30 33.883393 -117.855863 90 6307ft 101kts
18-May-19 13:30 33.884116 -117.827593 92 6453ft 101kts
18-May-19 13:31 33.884778 -117.792780 90 6315ft 109kts
18-May-19 13:32 33.884555 -117.754561 84 5657ft 114kts
18-May-19 13:33 33.899232 -117.723060 59 5058ft 104kts
18-May-19 13:34 33.885837 -117.696706 145 5184ft 98kts
18-May-19 13:35 33.864759 -117.674471 143 5568ft 103kts
18-May-19 13:36 33.846290 -117.648256 108 5911ft 113kts
18-May-19 13:37 33.836418 -117.615125 125 5824ft 97kts
18-May-19 13:38 33.822084 -117.585028 123 5479ft 112kts
18-May-19 13:39 33.806800 -117.553710 123 5453ft 103kts
18-May-19 13:40 33.792343 -117.524893 122 5457ft 98kts
18-May-19 13:41 33.778261 -117.497207 123 5453ft 93kts
18-May-19 13:42 33.774218 -117.471655 23 5460ft 79kts
18-May-19 13:43 33.778603 -117.470487 344 5461ft 73kts
18-May-19 13:44 33.778603 -117.470487 344 5461ft 73kts
18-May-19 13:45 33.778603 -117.470487 344 5461ft 73kts
18-May-19 13:46 33.778603 -117.470487 344 5461ft 73kts
18-May-19 13:47 33.778603 -117.470487 344 5461ft 73kts
18-May-19 13:48 33.778603 -117.470487 344 5461ft 73kts
18-May-19 13:49 33.778603 -117.470487 344 5461ft 73kts
18-May-19 13:50 33.778603 -117.470487 344 5461ft 73kts
18-May-19 13:51 33.778603 -117.470487 344 5461ft 73kts
18-May-19 13:52 33.778603 -117.470487 344 5461ft 73kts
18-May-19 13:53 33.778603 -117.470487 344 5461ft 73kts
18-May-19 13:54 33.778603 -117.470487 344 5461ft 73kts
18-May-19 13:55 33.778603 -117.470487 344 5461ft 73kts
18-May-19 13:56 33.778603 -117.470487 344 5461ft 73kts
18-May-19 13:57 33.778603 -117.470487 344 5461ft 73kts
18-May-19 13:58 33.778603 -117.470487 344 5461ft 73kts
18-May-19 13:59 33.778603 -117.470487 344 5461ft 73kts
18-May-19 14:00 33.778603 -117.470487 344 5461ft 73kts
18-May-19 14:01 33.778603 -117.470487 344 5461ft 73kts
18-May-19 14:02 33.778603 -117.470487 344 5461ft 73kts
18-May-19 14:03 33.778603 -117.470487 344 5461ft 73kts
18-May-19 14:04 33.778603 -117.470487 344 5461ft 73kts
18-May-19 14:05 33.778603 -117.470487 344 5461ft 73kts
18-May-19 14:06 33.778603 -117.470487 344 5461ft 73kts
18-May-19 14:07 33.778603 -117.470487 344 5461ft 73kts
18-May-19 14:08 33.778603 -117.470487 344 5461ft 73kts
18-May-19 14:09 33.778603 -117.470487 344 5461ft 73kts
18-May-19 14:10 33.778603 -117.470487 344 5461ft 73kts
18-May-19 14:11 33.778603 -117.470487 344 5461ft 73kts
18-May-19 14:12 33.778603 -117.470487 344 5461ft 73kts
18-May-19 14:13 33.778603 -117.470487 344 5461ft 73kts
18-May-19 14:14 33.778603 -117.470487 344 5461ft 73kts
18-May-19 14:15 33.778603 -117.470487 344 5461ft 73kts
18-May-19 14:16 33.778603 -117.470487 344 5461ft 73kts
18-May-19 14:17 33.778603 -117.470487 344 5461ft 73kts
18-May-19 14:18 33.778603 -117.470487 344 5461ft 73kts
18-May-19 14:19 33.778603 -117.470487 344 5461ft 73kts
18-May-19 14:20 33.778603 -117.470487 344 5461ft 73kts
18-May-19 14:21 33.778603 -117.470487 344 5461ft 73kts
18-May-19 14:22 33.778603 -117.470487 344 5461ft 73kts
18-May-19 14:23 33.778603 -117.470487 344 5461ft 73kts
18-May-19 14:24 33.778603 -117.470487 344 5461ft 73kts
18-May-19 14:25 33.778603 -117.470487 344 5461ft 73kts
18-May-19 14:26 33.778603 -117.470487 344 5461ft 73kts
18-May-19 14:27 33.784366 -117.488527 297 5446ft 78kts
18-May-19 14:28 33.800225 -117.506935 303 5502ft 81kts
18-May-19 14:29 33.815976 -117.493361 56 5339ft 93kts
18-May-19 14:30 33.823438 -117.463274 71 4901ft 90kts
18-May-19 14:31 33.837019 -117.444426 333 4642ft 64kts
18-May-19 14:32 33.849637 -117.460186 303 4372ft 69kts
18-May-19 14:33 33.863406 -117.479111 311 3869ft 73kts
18-May-19 14:34 33.876889 -117.498002 306 3362ft 76kts
18-May-19 14:35 33.890299 -117.516459 309 2956ft 68kts
18-May-19 14:36 33.903300 -117.533763 302 3033ft 71kts
18-May-19 14:37 33.915271 -117.551926 306 2904ft 67kts
18-May-19 14:38 33.925506 -117.571523 300 2667ft 75kts
18-May-19 14:39 33.939124 -117.590340 309 2463ft 76kts
18-May-19 14:40 33.952915 -117.609964 309 2466ft 82kts
18-May-19 14:41 33.970966 -117.627859 338 2471ft 85kts
18-May-19 14:42 33.995353 -117.623673 11 2495ft 90kts
18-May-19 14:43 34.019296 -117.613563 19 2172ft 90kts
18-May-19 14:44 34.038915 -117.596670 80 1840ft 88kts
18-May-19 14:45 34.038357 -117.565794 90 1684ft 94kts
18-May-19 14:46 34.053866 -117.564835 291 1388ft 71kts
18-May-19 14:47 34.054880 -117.585449 264 1009ft 57kts
18-May-19 14:48 34.054050 -117.594475 242 920ft 0kts
18-May-19 14:49 34.054050 -117.594475 241 920ft 0kts
18-May-19 14:50 34.053833 -117.597741 266 920ft 19kts
18-May-19 14:51 34.053840 -117.602052 268 921ft 5kts
18-May-19 14:52 34.052849 -117.603008 111 917ft 0kts
18-May-19 14:53 34.052849 -117.603008 112 917ft 0kts
18-May-19 14:54 34.052849 -117.603008 112 917ft 0kts
18-May-19 14:55 34.052849 -117.603008 112 917ft 0kts
18-May-19 14:56 34.052849 -117.603008 112 917ft 0kts
18-May-19 14:57 34.052849 -117.603008 112 917ft 0kts
18-May-19 14:58 34.052849 -117.603008 112 917ft 0kts
18-May-19 14:59 34.052849 -117.603008 112 917ft 0kts
18-May-19 15:00 34.052849 -117.603008 112 917ft 0kts
18-May-19 15:01 34.052849 -117.603008 112 917ft 0kts
18-May-19 15:02 34.052849 -117.603008 112 917ft 0kts

Navigation Log

Ident Type
Flight plan parsing failed, navigation log unavailable